sensor_id;sensor_type;location;lat;lon;timestamp;temperature;humidity
75901;DHT22;64577;50.594;5.570;2022-10-23T05:48:50;19.04;66.41
75901;DHT22;64577;50.594;5.570;2022-10-23T05:51:15;19.04;67.15
75901;DHT22;64577;50.594;5.570;2022-10-23T05:53:45;19.08;67.23
75901;DHT22;64577;50.594;5.570;2022-10-23T05:56:10;19.10;67.64
75901;DHT22;64577;50.594;5.570;2022-10-23T05:58:36;19.11;67.74
75901;DHT22;64577;50.594;5.570;2022-10-23T06:01:08;19.15;67.76
75901;DHT22;64577;50.594;5.570;2022-10-23T06:03:35;19.17;67.62
75901;DHT22;64577;50.594;5.570;2022-10-23T06:06:01;19.21;67.32
75901;DHT22;64577;50.594;5.570;2022-10-23T06:08:26;19.24;67.29
75901;DHT22;64577;50.594;5.570;2022-10-23T06:10:52;19.29;67.41
75901;DHT22;64577;50.594;5.570;2022-10-23T06:13:17;19.31;67.30
75901;DHT22;64577;50.594;5.570;2022-10-23T06:15:43;19.34;67.21
75901;DHT22;64577;50.594;5.570;2022-10-23T06:18:09;19.35;67.19
75901;DHT22;64577;50.594;5.570;2022-10-23T06:20:35;19.38;67.08
75901;DHT22;64577;50.594;5.570;2022-10-23T06:23:02;19.42;66.98
75901;DHT22;64577;50.594;5.570;2022-10-23T06:25:27;19.44;67.04
75901;DHT22;64577;50.594;5.570;2022-10-23T06:27:53;19.44;66.85
75901;DHT22;64577;50.594;5.570;2022-10-23T06:30:18;19.45;66.84
75901;DHT22;64577;50.594;5.570;2022-10-23T06:32:43;19.45;66.73
75901;DHT22;64577;50.594;5.570;2022-10-23T06:35:09;19.48;66.51
75901;DHT22;64577;50.594;5.570;2022-10-23T06:37:34;19.49;66.56
75901;DHT22;64577;50.594;5.570;2022-10-23T06:39:59;19.49;66.41
75901;DHT22;64577;50.594;5.570;2022-10-23T06:42:25;19.52;66.54
75901;DHT22;64577;50.594;5.570;2022-10-23T06:44:50;19.51;66.62
75901;DHT22;64577;50.594;5.570;2022-10-23T06:47:15;19.51;66.55
75901;DHT22;64577;50.594;5.570;2022-10-23T06:49:41;19.52;66.41
75901;DHT22;64577;50.594;5.570;2022-10-23T06:52:07;19.52;66.41
75901;DHT22;64577;50.594;5.570;2022-10-23T06:54:32;19.55;66.38
75901;DHT22;64577;50.594;5.570;2022-10-23T06:56:57;19.56;66.39
75901;DHT22;64577;50.594;5.570;2022-10-23T06:59:23;19.55;66.32
75901;DHT22;64577;50.594;5.570;2022-10-23T07:01:48;19.56;66.05
75901;DHT22;64577;50.594;5.570;2022-10-23T07:06:42;19.60;65.64
75901;DHT22;64577;50.594;5.570;2022-10-23T07:09:08;19.66;65.68
75901;DHT22;64577;50.594;5.570;2022-10-23T07:11:33;19.71;65.82
75901;DHT22;64577;50.594;5.570;2022-10-23T07:13:59;19.71;65.87
75901;DHT22;64577;50.594;5.570;2022-10-23T07:16:24;19.73;65.80
75901;DHT22;64577;50.594;5.570;2022-10-23T07:18:55;19.71;65.95
75901;DHT22;64577;50.594;5.570;2022-10-23T07:21:24;19.71;65.98
75901;DHT22;64577;50.594;5.570;2022-10-23T07:23:50;19.71;65.58
75901;DHT22;64577;50.594;5.570;2022-10-23T07:26:16;19.70;65.82
75901;DHT22;64577;50.594;5.570;2022-10-23T07:28:43;19.71;65.97
75901;DHT22;64577;50.594;5.570;2022-10-23T07:31:09;19.70;65.98
75901;DHT22;64577;50.594;5.570;2022-10-23T07:36:08;19.69;66.08
75901;DHT22;64577;50.594;5.570;2022-10-23T07:38:34;19.67;66.14
75901;DHT22;64577;50.594;5.570;2022-10-23T07:41:00;19.67;66.20
75901;DHT22;64577;50.594;5.570;2022-10-23T07:43:25;19.69;66.14
75901;DHT22;64577;50.594;5.570;2022-10-23T07:45:52;19.65;66.10
75901;DHT22;64577;50.594;5.570;2022-10-23T07:48:18;19.65;66.12
75901;DHT22;64577;50.594;5.570;2022-10-23T07:50:45;19.65;66.21
75901;DHT22;64577;50.594;5.570;2022-10-23T07:53:16;19.66;66.18
75901;DHT22;64577;50.594;5.570;2022-10-23T07:55:42;19.66;66.04
75901;DHT22;64577;50.594;5.570;2022-10-23T07:58:08;19.69;65.97
75901;DHT22;64577;50.594;5.570;2022-10-23T08:00:33;19.69;66.05
75901;DHT22;64577;50.594;5.570;2022-10-23T08:02:58;19.70;65.93
75901;DHT22;64577;50.594;5.570;2022-10-23T08:05:24;19.73;65.90
75901;DHT22;64577;50.594;5.570;2022-10-23T08:07:49;19.74;65.92
75901;DHT22;64577;50.594;5.570;2022-10-23T08:10:15;19.76;65.80
75901;DHT22;64577;50.594;5.570;2022-10-23T08:12:40;19.77;65.75
75901;DHT22;64577;50.594;5.570;2022-10-23T08:15:06;19.81;65.80
75901;DHT22;64577;50.594;5.570;2022-10-23T08:17:31;19.81;65.99
75901;DHT22;64577;50.594;5.570;2022-10-23T08:19:57;19.79;65.96
75901;DHT22;64577;50.594;5.570;2022-10-23T08:22:22;19.77;66.02
75901;DHT22;64577;50.594;5.570;2022-10-23T08:24:47;19.80;66.11
75901;DHT22;64577;50.594;5.570;2022-10-23T08:27:13;19.77;66.04
75901;DHT22;64577;50.594;5.570;2022-10-23T08:29:38;19.80;66.02
75901;DHT22;64577;50.594;5.570;2022-10-23T08:32:04;19.80;66.07
75901;DHT22;64577;50.594;5.570;2022-10-23T08:34:29;19.80;66.05
75901;DHT22;64577;50.594;5.570;2022-10-23T08:37:44;19.84;65.94
75901;DHT22;64577;50.594;5.570;2022-10-23T08:40:18;19.83;65.97
75901;DHT22;64577;50.594;5.570;2022-10-23T08:45:22;19.84;66.11
75901;DHT22;64577;50.594;5.570;2022-10-23T08:47:52;19.84;66.10
75901;DHT22;64577;50.594;5.570;2022-10-23T08:50:25;19.84;66.11
75901;DHT22;64577;50.594;5.570;2022-10-23T08:52:54;19.81;65.89
75901;DHT22;64577;50.594;5.570;2022-10-23T08:55:35;19.81;66.06
75901;DHT22;64577;50.594;5.570;2022-10-23T08:58:09;19.81;66.10
75901;DHT22;64577;50.594;5.570;2022-10-23T09:00:40;19.80;66.23
75901;DHT22;64577;50.594;5.570;2022-10-23T09:03:09;19.77;66.27
75901;DHT22;64577;50.594;5.570;2022-10-23T09:08:33;19.76;66.41
75901;DHT22;64577;50.594;5.570;2022-10-23T09:18:49;19.74;66.45
75901;DHT22;64577;50.594;5.570;2022-10-23T09:21:14;19.76;66.44
75901;DHT22;64577;50.594;5.570;2022-10-23T09:23:40;19.77;66.47
75901;DHT22;64577;50.594;5.570;2022-10-23T09:26:15;19.79;66.58
75901;DHT22;64577;50.594;5.570;2022-10-23T09:28:53;19.80;66.63
75901;DHT22;64577;50.594;5.570;2022-10-23T09:31:21;19.84;66.65
75901;DHT22;64577;50.594;5.570;2022-10-23T09:33:57;19.88;66.61
75901;DHT22;64577;50.594;5.570;2022-10-23T09:36:24;19.90;66.51
75901;DHT22;64577;50.594;5.570;2022-10-23T09:38:52;19.88;66.55
75901;DHT22;64577;50.594;5.570;2022-10-23T09:46:14;19.93;66.62
75901;DHT22;64577;50.594;5.570;2022-10-23T09:48:39;19.94;66.62
75901;DHT22;64577;50.594;5.570;2022-10-23T09:51:18;19.90;66.62
75901;DHT22;64577;50.594;5.570;2022-10-23T09:53:55;19.96;66.66
75901;DHT22;64577;50.594;5.570;2022-10-23T09:59:02;20.04;66.64
75901;DHT22;64577;50.594;5.570;2022-10-23T10:01:35;20.05;66.56
75901;DHT22;64577;50.594;5.570;2022-10-23T10:04:09;20.10;66.51
75901;DHT22;64577;50.594;5.570;2022-10-23T10:06:34;20.10;66.35
75901;DHT22;64577;50.594;5.570;2022-10-23T10:09:16;20.10;66.19
75901;DHT22;64577;50.594;5.570;2022-10-23T10:11:50;20.13;66.24
75901;DHT22;64577;50.594;5.570;2022-10-23T10:17:16;20.15;66.22
75901;DHT22;64577;50.594;5.570;2022-10-23T10:22:41;20.18;66.23
75901;DHT22;64577;50.594;5.570;2022-10-23T10:35:42;20.21;66.37
75901;DHT22;64577;50.594;5.570;2022-10-23T10:46:49;20.07;66.35
75901;DHT22;64577;50.594;5.570;2022-10-23T10:57:45;20.01;66.34
75901;DHT22;64577;50.594;5.570;2022-10-23T11:00:17;20.03;66.23
75901;DHT22;64577;50.594;5.570;2022-10-23T11:02:52;19.98;66.31
75901;DHT22;64577;50.594;5.570;2022-10-23T11:05:30;20.03;66.30
75901;DHT22;64577;50.594;5.570;2022-10-23T11:07:59;20.01;66.35
75901;DHT22;64577;50.594;5.570;2022-10-23T11:10:25;20.01;66.35
75901;DHT22;64577;50.594;5.570;2022-10-23T11:12:51;20.01;66.36
75901;DHT22;64577;50.594;5.570;2022-10-23T11:15:22;20.05;66.42
75901;DHT22;64577;50.594;5.570;2022-10-23T11:18:05;20.05;66.38
75901;DHT22;64577;50.594;5.570;2022-10-23T11:20:56;20.03;66.43
75901;DHT22;64577;50.594;5.570;2022-10-23T11:23:51;20.03;66.44
75901;DHT22;64577;50.594;5.570;2022-10-23T11:29:33;19.98;66.50
75901;DHT22;64577;50.594;5.570;2022-10-23T11:32:13;20.00;66.52
75901;DHT22;64577;50.594;5.570;2022-10-23T11:37:25;19.97;66.53
75901;DHT22;64577;50.594;5.570;2022-10-23T11:40:20;19.96;66.57
75901;DHT22;64577;50.594;5.570;2022-10-23T11:42:47;19.98;66.59
75901;DHT22;64577;50.594;5.570;2022-10-23T11:48:02;19.97;66.60
75901;DHT22;64577;50.594;5.570;2022-10-23T11:50:49;19.93;66.62
75901;DHT22;64577;50.594;5.570;2022-10-23T11:53:27;19.94;66.58
75901;DHT22;64577;50.594;5.570;2022-10-23T11:56:26;19.94;66.51
75901;DHT22;64577;50.594;5.570;2022-10-23T11:58:55;19.93;66.58
75901;DHT22;64577;50.594;5.570;2022-10-23T12:04:03;19.91;66.59
75901;DHT22;64577;50.594;5.570;2022-10-23T12:06:42;19.90;66.57
75901;DHT22;64577;50.594;5.570;2022-10-23T12:14:46;19.96;66.55
75901;DHT22;64577;50.594;5.570;2022-10-23T12:19:52;19.94;66.55
75901;DHT22;64577;50.594;5.570;2022-10-23T12:22:19;19.94;66.59
75901;DHT22;64577;50.594;5.570;2022-10-23T12:24:57;19.94;66.54
75901;DHT22;64577;50.594;5.570;2022-10-23T12:27:36;19.94;66.49
75901;DHT22;64577;50.594;5.570;2022-10-23T12:36:21;19.96;66.44
75901;DHT22;64577;50.594;5.570;2022-10-23T12:38:49;19.94;66.45
75901;DHT22;64577;50.594;5.570;2022-10-23T12:41:37;19.96;66.48
75901;DHT22;64577;50.594;5.570;2022-10-23T12:44:04;19.97;66.42
75901;DHT22;64577;50.594;5.570;2022-10-23T12:46:40;19.96;66.36
75901;DHT22;64577;50.594;5.570;2022-10-23T12:49:19;19.98;66.41
75901;DHT22;64577;50.594;5.570;2022-10-23T12:51:45;19.97;66.51
75901;DHT22;64577;50.594;5.570;2022-10-23T12:54:19;20.00;66.47
75901;DHT22;64577;50.594;5.570;2022-10-23T12:56:45;19.98;66.46
75901;DHT22;64577;50.594;5.570;2022-10-23T12:59:20;20.03;66.50
75901;DHT22;64577;50.594;5.570;2022-10-23T13:01:47;20.01;66.51
75901;DHT22;64577;50.594;5.570;2022-10-23T13:06:46;20.04;66.61
75901;DHT22;64577;50.594;5.570;2022-10-23T13:09:22;20.05;66.63
75901;DHT22;64577;50.594;5.570;2022-10-23T13:11:49;20.03;66.66
75901;DHT22;64577;50.594;5.570;2022-10-23T13:17:36;20.07;66.67
75901;DHT22;64577;50.594;5.570;2022-10-23T13:22:43;20.10;66.68
75901;DHT22;64577;50.594;5.570;2022-10-23T13:25:38;20.10;66.72
75901;DHT22;64577;50.594;5.570;2022-10-23T13:30:34;20.10;66.80
75901;DHT22;64577;50.594;5.570;2022-10-23T13:35:53;20.11;66.83
75901;DHT22;64577;50.594;5.570;2022-10-23T13:38:31;20.13;66.79
75901;DHT22;64577;50.594;5.570;2022-10-23T13:40:58;20.13;66.86
75901;DHT22;64577;50.594;5.570;2022-10-23T13:43:24;20.10;66.89
75901;DHT22;64577;50.594;5.570;2022-10-23T13:45:50;20.11;66.91
75901;DHT22;64577;50.594;5.570;2022-10-23T13:48:16;20.10;66.99
75901;DHT22;64577;50.594;5.570;2022-10-23T13:50:42;20.11;67.03
75901;DHT22;64577;50.594;5.570;2022-10-23T13:53:11;20.08;67.02
75901;DHT22;64577;50.594;5.570;2022-10-23T13:55:38;20.11;67.10
75901;DHT22;64577;50.594;5.570;2022-10-23T13:58:05;20.10;67.08
75901;DHT22;64577;50.594;5.570;2022-10-23T14:00:30;20.11;67.12
75901;DHT22;64577;50.594;5.570;2022-10-23T14:02:56;20.11;67.16
75901;DHT22;64577;50.594;5.570;2022-10-23T14:05:21;20.15;67.24
75901;DHT22;64577;50.594;5.570;2022-10-23T14:07:47;20.17;67.25
75901;DHT22;64577;50.594;5.570;2022-10-23T14:20:53;20.29;67.04
75901;DHT22;64577;50.594;5.570;2022-10-23T14:23:18;20.31;67.01
75901;DHT22;64577;50.594;5.570;2022-10-23T14:25:44;20.32;67.27
75901;DHT22;64577;50.594;5.570;2022-10-23T14:28:09;20.31;67.38
75901;DHT22;64577;50.594;5.570;2022-10-23T14:30:36;20.28;67.30
75901;DHT22;64577;50.594;5.570;2022-10-23T14:35:28;20.24;67.55
75901;DHT22;64577;50.594;5.570;2022-10-23T14:37:54;20.24;67.68
75901;DHT22;64577;50.594;5.570;2022-10-23T14:40:19;20.22;67.74
75901;DHT22;64577;50.594;5.570;2022-10-23T14:42:45;20.22;67.90
75901;DHT22;64577;50.594;5.570;2022-10-23T14:45:10;20.21;67.99
75901;DHT22;64577;50.594;5.570;2022-10-23T14:47:36;20.21;68.00
75901;DHT22;64577;50.594;5.570;2022-10-23T14:50:01;20.18;68.06
75901;DHT22;64577;50.594;5.570;2022-10-23T14:52:27;20.17;68.13
75901;DHT22;64577;50.594;5.570;2022-10-23T14:54:52;20.17;68.17
75901;DHT22;64577;50.594;5.570;2022-10-23T14:57:19;20.17;68.16
75901;DHT22;64577;50.594;5.570;2022-10-23T14:59:46;20.15;68.15
75901;DHT22;64577;50.594;5.570;2022-10-23T15:02:11;20.14;68.12
75901;DHT22;64577;50.594;5.570;2022-10-23T15:04:38;20.17;68.13
75901;DHT22;64577;50.594;5.570;2022-10-23T15:07:03;20.14;68.19
75901;DHT22;64577;50.594;5.570;2022-10-23T15:09:29;20.13;68.28
75901;DHT22;64577;50.594;5.570;2022-10-23T15:11:56;20.11;68.24
75901;DHT22;64577;50.594;5.570;2022-10-23T15:14:22;20.13;68.26
75901;DHT22;64577;50.594;5.570;2022-10-23T15:16:47;20.10;68.26
75901;DHT22;64577;50.594;5.570;2022-10-23T15:19:13;20.11;68.20
75901;DHT22;64577;50.594;5.570;2022-10-23T15:21:39;20.10;68.28
75901;DHT22;64577;50.594;5.570;2022-10-23T15:26:32;20.07;68.29
75901;DHT22;64577;50.594;5.570;2022-10-23T15:29:00;20.10;68.27
75901;DHT22;64577;50.594;5.570;2022-10-23T15:33:55;20.07;68.35
75901;DHT22;64577;50.594;5.570;2022-10-23T15:36:20;20.08;68.34
75901;DHT22;64577;50.594;5.570;2022-10-23T15:38:46;20.07;68.30
75901;DHT22;64577;50.594;5.570;2022-10-23T15:41:18;20.11;68.27
75901;DHT22;64577;50.594;5.570;2022-10-23T15:43:46;20.07;68.23
75901;DHT22;64577;50.594;5.570;2022-10-23T15:46:11;20.05;68.33
75901;DHT22;64577;50.594;5.570;2022-10-23T15:48:36;20.05;68.32
75901;DHT22;64577;50.594;5.570;2022-10-23T15:51:02;20.07;68.31
75901;DHT22;64577;50.594;5.570;2022-10-23T15:53:27;20.07;68.34
75901;DHT22;64577;50.594;5.570;2022-10-23T15:55:53;20.08;68.36
75901;DHT22;64577;50.594;5.570;2022-10-23T15:58:19;20.08;68.35
75901;DHT22;64577;50.594;5.570;2022-10-23T16:00:45;20.07;68.58
75901;DHT22;64577;50.594;5.570;2022-10-23T16:03:10;20.07;68.45
75901;DHT22;64577;50.594;5.570;2022-10-23T16:05:35;20.07;68.63
75901;DHT22;64577;50.594;5.570;2022-10-23T16:08:01;20.04;68.54
75901;DHT22;64577;50.594;5.570;2022-10-23T16:10:27;20.04;68.64
75901;DHT22;64577;50.594;5.570;2022-10-23T16:12:52;20.04;68.84
75901;DHT22;64577;50.594;5.570;2022-10-23T16:15:18;20.08;68.76
75901;DHT22;64577;50.594;5.570;2022-10-23T16:17:43;20.07;68.72
75901;DHT22;64577;50.594;5.570;2022-10-23T16:20:09;20.05;68.91
75901;DHT22;64577;50.594;5.570;2022-10-23T16:22:35;20.05;68.93
75901;DHT22;64577;50.594;5.570;2022-10-23T16:30:51;20.04;68.82
75901;DHT22;64577;50.594;5.570;2022-10-23T16:33:17;20.04;68.85
75901;DHT22;64577;50.594;5.570;2022-10-23T16:35:42;20.01;68.84
75901;DHT22;64577;50.594;5.570;2022-10-23T16:38:07;20.04;68.87
75901;DHT22;64577;50.594;5.570;2022-10-23T16:40:33;20.00;68.88
75901;DHT22;64577;50.594;5.570;2022-10-23T16:42:58;19.98;68.87
75901;DHT22;64577;50.594;5.570;2022-10-23T16:45:24;20.00;68.90
75901;DHT22;64577;50.594;5.570;2022-10-23T16:47:49;20.00;68.88
75901;DHT22;64577;50.594;5.570;2022-10-23T16:50:15;19.97;68.90
75901;DHT22;64577;50.594;5.570;2022-10-23T16:52:40;19.98;68.94
75901;DHT22;64577;50.594;5.570;2022-10-23T16:55:06;19.98;68.90
75901;DHT22;64577;50.594;5.570;2022-10-23T16:57:33;19.96;68.88
75901;DHT22;64577;50.594;5.570;2022-10-23T16:59:59;19.98;68.89
75901;DHT22;64577;50.594;5.570;2022-10-23T17:02:24;19.98;68.97
75901;DHT22;64577;50.594;5.570;2022-10-23T17:04:49;20.00;69.07
75901;DHT22;64577;50.594;5.570;2022-10-23T17:07:15;19.98;69.10
75901;DHT22;64577;50.594;5.570;2022-10-23T17:09:43;19.98;69.07
75901;DHT22;64577;50.594;5.570;2022-10-23T17:12:11;20.01;69.10
75901;DHT22;64577;50.594;5.570;2022-10-23T17:14:36;20.01;69.12
75901;DHT22;64577;50.594;5.570;2022-10-23T17:17:03;20.01;69.32
75901;DHT22;64577;50.594;5.570;2022-10-23T17:19:29;20.01;69.22
75901;DHT22;64577;50.594;5.570;2022-10-23T17:21:56;20.03;69.23
75901;DHT22;64577;50.594;5.570;2022-10-23T17:24:22;20.03;69.16
75901;DHT22;64577;50.594;5.570;2022-10-23T17:26:47;20.01;69.13
75901;DHT22;64577;50.594;5.570;2022-10-23T17:34:23;20.05;69.10
75901;DHT22;64577;50.594;5.570;2022-10-23T17:36:51;20.04;69.01
75901;DHT22;64577;50.594;5.570;2022-10-23T17:39:20;20.05;69.13
75901;DHT22;64577;50.594;5.570;2022-10-23T17:41:46;20.07;69.18
75901;DHT22;64577;50.594;5.570;2022-10-23T17:44:12;20.05;69.30
75901;DHT22;64577;50.594;5.570;2022-10-23T17:46:37;20.07;69.33
75901;DHT22;64577;50.594;5.570;2022-10-23T17:49:03;20.07;69.28
75901;DHT22;64577;50.594;5.570;2022-10-23T17:51:32;20.08;69.38
75901;DHT22;64577;50.594;5.570;2022-10-23T17:54:09;20.11;69.55
75901;DHT22;64577;50.594;5.570;2022-10-23T17:56:35;20.13;69.69
75901;DHT22;64577;50.594;5.570;2022-10-23T17:59:07;20.13;69.83
75901;DHT22;64577;50.594;5.570;2022-10-23T18:01:33;20.14;70.06
75901;DHT22;64577;50.594;5.570;2022-10-23T18:04:00;20.13;70.29
75901;DHT22;64577;50.594;5.570;2022-10-23T18:06:29;20.14;70.53
75901;DHT22;64577;50.594;5.570;2022-10-23T18:08:56;20.18;70.60
75901;DHT22;64577;50.594;5.570;2022-10-23T18:11:29;20.18;71.80
75901;DHT22;64577;50.594;5.570;2022-10-23T18:13:56;20.21;73.68
75901;DHT22;64577;50.594;5.570;2022-10-23T18:16:21;20.28;72.69
75901;DHT22;64577;50.594;5.570;2022-10-23T18:18:47;20.29;73.06
75901;DHT22;64577;50.594;5.570;2022-10-23T18:21:14;20.28;72.69
75901;DHT22;64577;50.594;5.570;2022-10-23T18:23:40;20.28;73.00
75901;DHT22;64577;50.594;5.570;2022-10-23T18:26:15;20.29;72.78
75901;DHT22;64577;50.594;5.570;2022-10-23T18:28:43;20.32;73.25
75901;DHT22;64577;50.594;5.570;2022-10-23T18:31:10;20.31;73.29
75901;DHT22;64577;50.594;5.570;2022-10-23T18:33:36;20.33;73.26
75901;DHT22;64577;50.594;5.570;2022-10-23T18:36:01;20.33;73.22
75901;DHT22;64577;50.594;5.570;2022-10-23T18:38:26;20.35;73.36
75901;DHT22;64577;50.594;5.570;2022-10-23T18:40:54;20.38;73.17
75901;DHT22;64577;50.594;5.570;2022-10-23T18:43:20;20.40;73.00
75901;DHT22;64577;50.594;5.570;2022-10-23T18:45:46;20.39;72.79
75901;DHT22;64577;50.594;5.570;2022-10-23T18:48:11;20.38;72.73
75901;DHT22;64577;50.594;5.570;2022-10-23T18:50:37;20.40;72.16
75901;DHT22;64577;50.594;5.570;2022-10-23T18:53:03;20.42;72.38
75901;DHT22;64577;50.594;5.570;2022-10-23T18:55:28;20.42;72.02
75901;DHT22;64577;50.594;5.570;2022-10-23T18:57:54;20.42;71.98
75901;DHT22;64577;50.594;5.570;2022-10-23T19:00:19;20.42;71.87
75901;DHT22;64577;50.594;5.570;2022-10-23T19:02:45;20.43;71.65
75901;DHT22;64577;50.594;5.570;2022-10-23T19:05:12;20.40;71.45
75901;DHT22;64577;50.594;5.570;2022-10-23T19:07:39;20.40;71.56
75901;DHT22;64577;50.594;5.570;2022-10-23T19:10:09;20.40;71.73
75901;DHT22;64577;50.594;5.570;2022-10-23T19:12:36;20.36;71.59
75901;DHT22;64577;50.594;5.570;2022-10-23T19:15:01;20.33;71.56
75901;DHT22;64577;50.594;5.570;2022-10-23T19:17:28;20.35;71.53
75901;DHT22;64577;50.594;5.570;2022-10-23T19:20:00;20.31;71.53
75901;DHT22;64577;50.594;5.570;2022-10-23T19:22:28;20.29;71.46
75901;DHT22;64577;50.594;5.570;2022-10-23T19:25:02;20.28;71.54
75901;DHT22;64577;50.594;5.570;2022-10-23T19:35:47;20.21;71.01
75901;DHT22;64577;50.594;5.570;2022-10-23T19:38:13;20.21;70.93
75901;DHT22;64577;50.594;5.570;2022-10-23T19:40:38;20.17;70.92
75901;DHT22;64577;50.594;5.570;2022-10-23T19:43:03;20.17;70.81
75901;DHT22;64577;50.594;5.570;2022-10-23T19:45:29;20.15;70.70
75901;DHT22;64577;50.594;5.570;2022-10-23T19:47:54;20.14;70.63
75901;DHT22;64577;50.594;5.570;2022-10-23T19:50:20;20.13;70.30
75901;DHT22;64577;50.594;5.570;2022-10-23T19:52:46;20.13;70.41
75901;DHT22;64577;50.594;5.570;2022-10-23T19:55:12;20.13;70.53
75901;DHT22;64577;50.594;5.570;2022-10-23T19:57:37;20.11;70.51
75901;DHT22;64577;50.594;5.570;2022-10-23T20:00:04;20.10;70.46
75901;DHT22;64577;50.594;5.570;2022-10-23T20:02:32;20.13;70.27
75901;DHT22;64577;50.594;5.570;2022-10-23T20:05:00;20.08;70.18
75901;DHT22;64577;50.594;5.570;2022-10-23T20:07:25;20.08;70.19
75901;DHT22;64577;50.594;5.570;2022-10-23T20:09:51;20.08;70.15
75901;DHT22;64577;50.594;5.570;2022-10-23T20:12:16;20.08;70.12
75901;DHT22;64577;50.594;5.570;2022-10-23T20:14:41;20.07;70.07
75901;DHT22;64577;50.594;5.570;2022-10-23T20:17:07;20.07;70.04
75901;DHT22;64577;50.594;5.570;2022-10-23T20:19:32;20.04;70.02
75901;DHT22;64577;50.594;5.570;2022-10-23T20:21:59;20.04;70.01
75901;DHT22;64577;50.594;5.570;2022-10-23T20:24:25;20.04;69.95
75901;DHT22;64577;50.594;5.570;2022-10-23T20:26:52;20.03;69.84
75901;DHT22;64577;50.594;5.570;2022-10-23T20:29:19;20.03;69.85
75901;DHT22;64577;50.594;5.570;2022-10-23T20:31:45;20.04;69.80
75901;DHT22;64577;50.594;5.570;2022-10-23T20:34:10;20.00;69.81
75901;DHT22;64577;50.594;5.570;2022-10-23T20:36:39;20.03;69.74
75901;DHT22;64577;50.594;5.570;2022-10-23T20:39:08;19.98;69.55
75901;DHT22;64577;50.594;5.570;2022-10-23T20:41:34;20.01;69.69
75901;DHT22;64577;50.594;5.570;2022-10-23T20:44:03;19.98;69.66
75901;DHT22;64577;50.594;5.570;2022-10-23T20:46:29;19.97;69.63
75901;DHT22;64577;50.594;5.570;2022-10-23T20:48:55;19.96;69.57
75901;DHT22;64577;50.594;5.570;2022-10-23T20:51:22;19.93;69.56
75901;DHT22;64577;50.594;5.570;2022-10-23T20:56:17;19.94;69.53
75901;DHT22;64577;50.594;5.570;2022-10-23T20:58:43;19.94;69.34
75901;DHT22;64577;50.594;5.570;2022-10-23T21:01:13;19.97;69.43
75901;DHT22;64577;50.594;5.570;2022-10-23T21:03:41;19.96;69.32
75901;DHT22;64577;50.594;5.570;2022-10-23T21:06:09;19.96;69.33
75901;DHT22;64577;50.594;5.570;2022-10-23T21:08:36;19.91;69.32
75901;DHT22;64577;50.594;5.570;2022-10-23T21:11:02;19.94;69.29
75901;DHT22;64577;50.594;5.570;2022-10-23T21:13:28;19.93;69.24
75901;DHT22;64577;50.594;5.570;2022-10-23T21:15:54;19.93;69.24
75901;DHT22;64577;50.594;5.570;2022-10-23T21:18:20;19.93;69.16
75901;DHT22;64577;50.594;5.570;2022-10-23T21:20:48;19.93;69.15
75901;DHT22;64577;50.594;5.570;2022-10-23T21:23:14;19.90;69.10
75901;DHT22;64577;50.594;5.570;2022-10-23T21:25:40;19.88;69.10
75901;DHT22;64577;50.594;5.570;2022-10-23T21:28:07;19.91;69.11
75901;DHT22;64577;50.594;5.570;2022-10-23T22:06:45;19.86;68.63
75901;DHT22;64577;50.594;5.570;2022-10-23T22:09:13;19.84;68.62
75901;DHT22;64577;50.594;5.570;2022-10-23T22:11:39;19.83;68.63
75901;DHT22;64577;50.594;5.570;2022-10-23T22:14:05;19.81;68.53
75901;DHT22;64577;50.594;5.570;2022-10-23T22:16:31;19.83;68.54
75901;DHT22;64577;50.594;5.570;2022-10-23T22:18:56;19.83;68.52
75901;DHT22;64577;50.594;5.570;2022-10-23T22:21:24;19.81;68.51
75901;DHT22;64577;50.594;5.570;2022-10-23T22:23:52;19.84;68.49
75901;DHT22;64577;50.594;5.570;2022-10-23T22:26:33;19.81;68.53
75901;DHT22;64577;50.594;5.570;2022-10-23T22:29:00;19.83;68.28
75901;DHT22;64577;50.594;5.570;2022-10-23T22:31:28;19.80;68.49
75901;DHT22;64577;50.594;5.570;2022-10-23T22:33:55;19.81;68.42
75901;DHT22;64577;50.594;5.570;2022-10-23T22:36:21;19.81;68.45
75901;DHT22;64577;50.594;5.570;2022-10-23T22:38:46;19.81;68.45
75901;DHT22;64577;50.594;5.570;2022-10-23T22:41:12;19.79;68.45
75901;DHT22;64577;50.594;5.570;2022-10-23T22:43:38;19.80;68.36
75901;DHT22;64577;50.594;5.570;2022-10-23T22:46:09;19.79;68.37
75901;DHT22;64577;50.594;5.570;2022-10-23T22:48:35;19.77;68.25
75901;DHT22;64577;50.594;5.570;2022-10-23T22:51:01;19.76;68.19
75901;DHT22;64577;50.594;5.570;2022-10-23T22:53:26;19.79;68.28
75901;DHT22;64577;50.594;5.570;2022-10-23T22:55:53;19.80;68.11
75901;DHT22;64577;50.594;5.570;2022-10-23T22:58:19;19.77;68.06
75901;DHT22;64577;50.594;5.570;2022-10-23T23:00:45;19.77;68.22
75901;DHT22;64577;50.594;5.570;2022-10-23T23:03:10;19.76;68.15
75901;DHT22;64577;50.594;5.570;2022-10-23T23:05:40;19.77;68.20
75901;DHT22;64577;50.594;5.570;2022-10-23T23:08:06;19.77;68.08
75901;DHT22;64577;50.594;5.570;2022-10-23T23:10:31;19.77;68.10
75901;DHT22;64577;50.594;5.570;2022-10-23T23:12:56;19.76;68.19
75901;DHT22;64577;50.594;5.570;2022-10-23T23:15:22;19.76;68.24
75901;DHT22;64577;50.594;5.570;2022-10-23T23:17:47;19.76;68.14
75901;DHT22;64577;50.594;5.570;2022-10-23T23:20:12;19.77;68.24
75901;DHT22;64577;50.594;5.570;2022-10-23T23:22:38;19.79;68.31
75901;DHT22;64577;50.594;5.570;2022-10-23T23:25:04;19.77;68.35
75901;DHT22;64577;50.594;5.570;2022-10-23T23:27:29;19.77;68.37
75901;DHT22;64577;50.594;5.570;2022-10-23T23:29:55;19.77;68.43
75901;DHT22;64577;50.594;5.570;2022-10-23T23:32:21;19.76;68.34
75901;DHT22;64577;50.594;5.570;2022-10-23T23:34:47;19.74;68.42
75901;DHT22;64577;50.594;5.570;2022-10-23T23:37:12;19.76;68.40
75901;DHT22;64577;50.594;5.570;2022-10-23T23:39:37;19.76;68.36
75901;DHT22;64577;50.594;5.570;2022-10-23T23:42:03;19.76;68.31
75901;DHT22;64577;50.594;5.570;2022-10-23T23:44:28;19.77;68.21
75901;DHT22;64577;50.594;5.570;2022-10-23T23:46:53;19.73;68.24
75901;DHT22;64577;50.594;5.570;2022-10-23T23:49:20;19.73;68.13
75901;DHT22;64577;50.594;5.570;2022-10-23T23:51:45;19.73;68.12
75901;DHT22;64577;50.594;5.570;2022-10-23T23:54:10;19.74;67.89
75901;DHT22;64577;50.594;5.570;2022-10-23T23:56:36;19.73;67.96
75901;DHT22;64577;50.594;5.570;2022-10-23T23:59:01;19.73;67.89
